ESSD/BLE METAR and TAF weather

Enter ICAO airport designator
Station Type Date Time Source
ESSD METAR 2020/02/25 00:20 UTC NOAA

ESSD 250020Z AUTO 27003KT 9999 NCD M04/M06 Q0999


Station Type Date Time Source
ESSD Decoded METAR 2020/02/25 00:20 UTC NOAA

Borlange, Sweden (ESSD) 60-26N 015-31E 0M
Feb 24, 2020 - 07:20 PM EST / 2020.02.25 0020 UTC
Wind: from the W (270 degrees) at 3 MPH (3 KT):0
Visibility: greater than 7 mile(s):0
Temperature: 24 F (-4 C)
Dew Point: 21 F (-6 C)
Relative Humidity: 85%
Pressure (altimeter): 29.50 in. Hg (0999 hPa)
ob: ESSD 250020Z AUTO 27003KT 9999 NCD M04/M06 Q0999
cycle: 0

Station Type Date Time Source
ESSD TAF 2018/05/02 04:48 UTC NOAA

TAF TAF ESSD 020320Z 0204/0412 27008KT 9999 BKN019 PROB40 0204/0209 BKN006

Example: see airport list